Time;durP1;ratioP1;P1;durP2;ratioP2;P2;SDS_P1;SDS_P2;PMS_P1;PMS_P2;Temp;Humidity;BMP_temperature;BMP_pressure;BME280_temperature;BME280_humidity;BME280_pressure;Samples;Min_cycle;Max_cycle;Signal;HPM_P1;HPM_P2
2023/02/06 00:01:44;;;;;;;7.80;1.90;;;2.80;99.90;;;;;;5014545;28;20415;-71
2023/02/06 00:04:10;;;;;;;4.10;2.00;;;2.80;99.90;;;;;;5014415;28;20831;-71
2023/02/06 00:06:35;;;;;;;7.10;2.27;;;2.80;99.90;;;;;;5014282;28;20415;-70
2023/02/06 00:09:02;;;;;;;3.47;1.57;;;2.80;99.90;;;;;;5014067;28;20947;-71
2023/02/06 00:11:28;;;;;;;14.57;2.87;;;2.70;99.90;;;;;;5014356;28;20216;-71
2023/02/06 00:13:53;;;;;;;12.20;2.60;;;2.70;99.90;;;;;;5014419;28;20880;-71
2023/02/06 00:16:23;;;;;;;9.83;2.83;;;2.70;99.90;;;;;;5013791;28;20177;-71
2023/02/06 00:18:49;;;;;;;14.43;4.03;;;2.70;99.90;;;;;;4997974;28;20176;-71
2023/02/06 00:21:16;;;;;;;9.70;3.27;;;2.70;99.90;;;;;;4993272;28;20436;-71
2023/02/06 00:23:42;;;;;;;14.63;3.80;;;2.60;99.90;;;;;;4994571;28;20408;-72
2023/02/06 00:26:08;;;;;;;6.40;3.20;;;2.50;99.90;;;;;;4994214;28;20430;-72
2023/02/06 00:28:33;;;;;;;10.23;3.33;;;2.50;99.90;;;;;;4993274;28;20173;-72
2023/02/06 00:30:59;;;;;;;18.93;3.77;;;2.50;99.90;;;;;;4993291;28;20279;-71
2023/02/06 00:33:25;;;;;;;15.57;4.83;;;2.50;99.90;;;;;;4994609;28;20235;-71
2023/02/06 00:35:50;;;;;;;7.70;2.93;;;2.50;99.90;;;;;;4994214;28;20231;-71
2023/02/06 00:38:16;;;;;;;13.33;2.90;;;2.50;99.90;;;;;;4994482;28;20188;-71
2023/02/06 00:40:41;;;;;;;12.47;2.63;;;2.50;99.90;;;;;;4994485;28;20204;-71
2023/02/06 00:43:07;;;;;;;14.70;3.43;;;2.50;99.90;;;;;;4994448;28;20252;-71
2023/02/06 00:45:32;;;;;;;10.53;3.60;;;2.50;99.90;;;;;;4994162;28;20211;-71
2023/02/06 00:47:58;;;;;;;7.33;4.20;;;2.50;99.90;;;;;;5012706;28;20279;-71
2023/02/06 00:50:24;;;;;;;9.83;3.80;;;2.50;99.90;;;;;;5013518;28;20271;-72
2023/02/06 00:52:49;;;;;;;19.57;4.00;;;2.50;99.90;;;;;;5013785;28;20962;-72
2023/02/06 00:55:15;;;;;;;10.30;2.97;;;2.40;99.90;;;;;;5013596;28;20589;-71
2023/02/06 00:57:40;;;;;;;10.37;3.47;;;2.40;99.90;;;;;;5013795;28;20609;-71
2023/02/06 01:00:07;;;;;;;8.63;2.70;;;2.40;99.90;;;;;;5021075;28;20278;-71
2023/02/06 01:02:33;;;;;;;7.87;3.20;;;2.40;99.90;;;;;;5016943;28;20172;-72
2023/02/06 01:04:59;;;;;;;7.47;2.77;;;2.30;99.90;;;;;;5013333;28;20877;-72
2023/02/06 01:07:25;;;;;;;6.60;2.70;;;2.30;99.90;;;;;;5013603;28;20486;-71
2023/02/06 01:09:50;;;;;;;19.13;4.70;;;2.20;99.90;;;;;;5013284;28;20211;-71
2023/02/06 01:12:16;;;;;;;5.67;3.30;;;2.20;99.90;;;;;;5013545;28;20267;-72
2023/02/06 01:14:41;;;;;;;16.47;4.70;;;2.20;99.90;;;;;;5013006;28;20229;-71
2023/02/06 01:17:09;;;;;;;13.50;5.37;;;2.10;99.90;;;;;;4996388;28;20258;-71
2023/02/06 01:19:36;;;;;;;4.70;3.10;;;2.10;99.90;;;;;;4993669;28;20597;-72
2023/02/06 01:22:01;;;;;;;6.67;3.30;;;2.00;99.90;;;;;;4993576;28;20433;-71
2023/02/06 01:24:27;;;;;;;9.30;2.70;;;1.80;99.90;;;;;;4993380;28;20408;-71
2023/02/06 01:26:52;;;;;;;5.27;2.60;;;1.70;99.90;;;;;;4993528;28;20176;-71
2023/02/06 01:29:18;;;;;;;22.27;4.63;;;1.80;99.90;;;;;;4993485;28;20177;-72
2023/02/06 01:31:43;;;;;;;10.13;3.40;;;1.90;99.90;;;;;;4992154;28;20549;-71
2023/02/06 01:34:09;;;;;;;7.20;2.83;;;1.80;99.90;;;;;;4993478;28;20180;-72
2023/02/06 01:36:34;;;;;;;6.80;3.27;;;1.80;99.90;;;;;;4993036;28;20247;-71
2023/02/06 01:39:00;;;;;;;11.43;3.10;;;1.80;99.90;;;;;;4993443;28;20180;-72
2023/02/06 01:41:26;;;;;;;13.47;2.70;;;1.80;99.90;;;;;;4993223;28;20239;-71
2023/02/06 01:44:14;;;;;;;8.30;2.90;;;1.80;99.90;;;;;;4993313;28;20165;-71
2023/02/06 01:46:45;;;;;;;8.83;3.00;;;1.80;99.90;;;;;;5001150;28;20176;-71
2023/02/06 01:49:32;;;;;;;7.23;2.17;;;1.70;99.90;;;;;;5012866;28;20421;-72
2023/02/06 01:52:09;;;;;;;8.70;2.80;;;1.70;99.90;;;;;;5012803;28;20402;-71
2023/02/06 01:54:35;;;;;;;10.77;3.33;;;1.70;99.90;;;;;;5012547;28;20395;-71
2023/02/06 01:57:06;;;;;;;12.37;3.90;;;1.60;99.90;;;;;;5012667;28;20959;-71
2023/02/06 01:59:33;;;;;;;10.73;2.67;;;1.60;99.90;;;;;;5012470;28;20559;-71
2023/02/06 02:01:58;;;;;;;4.90;2.00;;;1.60;99.90;;;;;;5012023;28;20494;-71
2023/02/06 02:04:27;;;;;;;12.53;3.30;;;1.60;99.90;;;;;;5012370;28;20960;-71
2023/02/06 02:07:11;;;;;;;9.47;3.00;;;1.60;99.90;;;;;;5012632;28;20568;-72
2023/02/06 02:09:36;;;;;;;6.77;2.50;;;1.60;99.90;;;;;;5012381;28;20466;-71
2023/02/06 02:12:03;;;;;;;5.73;2.20;;;1.50;99.90;;;;;;5024595;28;20452;-71
2023/02/06 02:14:29;;;;;;;9.93;2.20;;;1.50;99.90;;;;;;5010807;28;20179;-72
2023/02/06 02:17:03;;;;;;;7.53;2.47;;;1.50;99.90;;;;;;4993083;28;20945;-72
2023/02/06 02:20:16;;;;;;;10.10;3.50;;;1.50;99.90;;;;;;4992726;28;20188;-73
2023/02/06 02:23:06;;;;;;;10.53;2.57;;;1.40;99.90;;;;;;4992727;28;20415;-71
2023/02/06 02:25:47;;;;;;;12.27;4.20;;;1.40;99.90;;;;;;4992458;28;20897;-70
2023/02/06 02:28:25;;;;;;;5.90;2.73;;;1.40;99.90;;;;;;4991479;28;20415;-71
2023/02/06 02:31:13;;;;;;;12.63;3.90;;;1.40;99.90;;;;;;4992517;28;20434;-71
2023/02/06 02:33:59;;;;;;;4.40;3.03;;;1.40;99.90;;;;;;5008355;28;20446;-70
2023/02/06 02:36:39;;;;;;;9.40;2.83;;;1.30;99.90;;;;;;5011866;28;20394;-70
2023/02/06 02:39:37;;;;;;;3.67;2.60;;;1.30;99.90;;;;;;5012162;28;20414;-70
2023/02/06 02:42:34;;;;;;;14.93;2.87;;;1.30;99.90;;;;;;5012072;28;20408;-70
2023/02/06 02:45:11;;;;;;;9.90;3.20;;;1.30;99.90;;;;;;5010663;28;21004;-70
2023/02/06 02:48:05;;;;;;;6.27;3.13;;;1.30;99.90;;;;;;4992507;28;20400;-71
2023/02/06 02:50:32;;;;;;;21.60;3.23;;;1.40;99.90;;;;;;4990341;28;20450;-71
2023/02/06 02:52:59;;;;;;;7.97;2.80;;;1.40;99.90;;;;;;4992397;28;20434;-71
2023/02/06 02:55:25;;;;;;;14.17;4.17;;;1.40;99.90;;;;;;4992127;28;20419;-71
2023/02/06 02:57:58;;;;;;;5.57;2.93;;;1.40;99.90;;;;;;4991024;28;20462;-72
2023/02/06 03:00:25;;;;;;;13.67;3.50;;;1.40;99.90;;;;;;4991147;28;20243;-71
2023/02/06 03:02:53;;;;;;;9.93;4.37;;;1.40;99.90;;;;;;4992460;28;20414;-70
2023/02/06 03:05:23;;;;;;;7.70;3.50;;;1.40;99.90;;;;;;4990964;28;20502;-70
2023/02/06 03:08:35;;;;;;;19.90;3.97;;;1.40;99.90;;;;;;4992397;28;20509;-70
2023/02/06 03:11:11;;;;;;;5.70;3.20;;;1.50;99.90;;;;;;4991151;28;20467;-70
2023/02/06 03:13:54;;;;;;;12.30;2.60;;;1.50;99.90;;;;;;4994776;28;20403;-71
2023/02/06 03:16:25;;;;;;;9.73;4.40;;;1.50;99.90;;;;;;4999446;28;20900;-70
2023/02/06 03:19:12;;;;;;;9.30;4.10;;;1.50;99.90;;;;;;5022983;28;21086;-72
2023/02/06 03:21:39;;;;;;;22.60;3.83;;;1.50;99.90;;;;;;5035420;28;20404;-71
2023/02/06 03:24:13;;;;;;;10.23;4.43;;;1.50;99.90;;;;;;5034001;28;20405;-71
2023/02/06 03:26:40;;;;;;;9.00;4.57;;;1.50;99.90;;;;;;5035049;28;20405;-71
2023/02/06 03:29:08;;;;;;;4.20;2.80;;;1.40;99.90;;;;;;5035146;28;20406;-70
2023/02/06 03:31:39;;;;;;;12.93;4.47;;;1.40;99.90;;;;;;5034806;28;20485;-70
2023/02/06 03:34:24;;;;;;;9.07;2.73;;;1.40;99.90;;;;;;5008425;28;20504;-72
2023/02/06 03:36:51;;;;;;;12.73;3.87;;;1.40;99.90;;;;;;5014860;28;20455;-70
2023/02/06 03:39:17;;;;;;;15.30;4.60;;;1.40;99.90;;;;;;5015248;28;20804;-72
2023/02/06 03:41:43;;;;;;;27.57;4.30;;;1.30;99.90;;;;;;5015063;28;20503;-71
2023/02/06 03:44:14;;;;;;;15.80;3.70;;;1.30;99.90;;;;;;5015201;28;20219;-70
2023/02/06 03:46:42;;;;;;;9.00;3.17;;;1.30;99.90;;;;;;4998064;28;20649;-71
2023/02/06 03:49:10;;;;;;;10.83;5.10;;;1.30;99.90;;;;;;4995383;28;20414;-70
2023/02/06 03:51:42;;;;;;;8.97;3.50;;;1.20;99.90;;;;;;4995515;28;20495;-71
2023/02/06 03:54:09;;;;;;;7.57;3.60;;;1.20;99.90;;;;;;4995276;28;20431;-72
2023/02/06 03:56:45;;;;;;;8.40;4.37;;;1.20;99.90;;;;;;4995150;28;20444;-71
2023/02/06 03:59:11;;;;;;;10.60;4.50;;;1.20;99.90;;;;;;4995306;28;20412;-72
2023/02/06 04:01:45;;;;;;;23.97;4.07;;;1.20;99.90;;;;;;4996364;28;20432;-72
2023/02/06 04:04:15;;;;;;;10.20;3.47;;;1.20;99.90;;;;;;4995099;28;20255;-71
2023/02/06 04:06:40;;;;;;;26.20;4.77;;;1.20;99.90;;;;;;4995175;28;20766;-72
2023/02/06 04:09:06;;;;;;;11.40;3.50;;;1.20;99.90;;;;;;4994820;28;20420;-71
2023/02/06 04:11:31;;;;;;;14.93;3.70;;;1.20;99.90;;;;;;4995157;28;20663;-71
2023/02/06 04:13:57;;;;;;;10.50;4.80;;;1.10;99.90;;;;;;4994990;28;20258;-71
2023/02/06 04:16:22;;;;;;;12.37;4.93;;;1.10;99.90;;;;;;4994599;28;20202;-70
2023/02/06 04:18:48;;;;;;;8.03;2.80;;;1.10;99.90;;;;;;4995022;28;20260;-72
2023/02/06 04:21:14;;;;;;;9.23;3.50;;;1.10;99.90;;;;;;4994696;28;20741;-71
2023/02/06 04:23:39;;;;;;;7.60;3.03;;;1.10;99.90;;;;;;4993966;28;20701;-71
2023/02/06 04:26:04;;;;;;;9.77;3.97;;;1.10;99.90;;;;;;4994488;28;20672;-71
2023/02/06 04:28:30;;;;;;;8.50;2.37;;;1.10;99.90;;;;;;5006851;28;20195;-71
2023/02/06 04:30:56;;;;;;;3.37;2.10;;;1.10;99.90;;;;;;5033962;28;20234;-70
2023/02/06 04:33:21;;;;;;;10.63;2.87;;;1.00;99.90;;;;;;5015010;28;20234;-71
2023/02/06 04:35:47;;;;;;;5.23;2.37;;;1.10;99.90;;;;;;4994323;28;20188;-72
2023/02/06 04:38:13;;;;;;;20.97;4.93;;;1.10;99.90;;;;;;4994529;28;20625;-70
2023/02/06 04:40:39;;;;;;;16.97;4.07;;;1.00;99.90;;;;;;4994491;28;20446;-70
2023/02/06 04:43:04;;;;;;;16.07;4.10;;;1.00;99.90;;;;;;4993202;28;20259;-71
2023/02/06 04:45:30;;;;;;;9.03;3.37;;;1.00;99.90;;;;;;5001800;28;20179;-71
2023/02/06 04:47:55;;;;;;;10.63;4.17;;;1.00;99.90;;;;;;5013973;28;20563;-71
2023/02/06 04:50:21;;;;;;;18.23;5.07;;;1.10;99.90;;;;;;5013816;28;20200;-71
2023/02/06 04:52:46;;;;;;;12.30;4.20;;;1.10;99.90;;;;;;5013802;28;20168;-70
2023/02/06 04:55:12;;;;;;;8.97;3.90;;;1.10;99.90;;;;;;5013633;28;20200;-71
2023/02/06 04:57:37;;;;;;;26.43;4.97;;;1.20;99.90;;;;;;5013810;28;20235;-70
2023/02/06 05:00:05;;;;;;;12.80;4.30;;;1.20;99.90;;;;;;5013679;28;20192;-70
2023/02/06 05:02:36;;;;;;;18.70;5.57;;;1.30;99.90;;;;;;4999690;28;20187;-71
2023/02/06 05:05:03;;;;;;;18.73;5.70;;;1.50;99.90;;;;;;4993765;28;20408;-70
2023/02/06 05:07:28;;;;;;;16.80;5.87;;;1.60;99.90;;;;;;4994083;28;20782;-71
2023/02/06 05:09:54;;;;;;;20.53;4.20;;;1.70;99.90;;;;;;4993818;28;20458;-70
2023/02/06 05:12:19;;;;;;;7.40;4.00;;;1.90;99.90;;;;;;4994003;28;20253;-70
2023/02/06 05:14:45;;;;;;;16.00;3.30;;;2.10;99.90;;;;;;4993695;28;20259;-70
2023/02/06 05:17:10;;;;;;;17.73;4.60;;;2.20;99.90;;;;;;4993792;28;20603;-71
2023/02/06 05:19:36;;;;;;;13.33;4.17;;;2.40;99.90;;;;;;4992457;28;20192;-70
2023/02/06 05:22:01;;;;;;;7.53;4.33;;;2.50;99.90;;;;;;4993795;28;20650;-70
2023/02/06 05:24:27;;;;;;;9.30;3.70;;;2.60;99.90;;;;;;4993496;28;20180;-71
2023/02/06 05:26:56;;;;;;;10.17;4.03;;;2.70;99.90;;;;;;4993679;28;20637;-70
2023/02/06 05:29:22;;;;;;;14.97;4.20;;;2.80;99.90;;;;;;4993694;28;20173;-70
2023/02/06 05:31:47;;;;;;;11.07;3.87;;;2.90;99.90;;;;;;4993616;28;20789;-70
2023/02/06 05:34:13;;;;;;;13.47;4.60;;;3.00;99.90;;;;;;5012986;28;20200;-70
2023/02/06 05:36:39;;;;;;;7.63;4.43;;;3.10;99.90;;;;;;5012837;28;20279;-72
2023/02/06 05:39:04;;;;;;;9.13;4.77;;;3.20;99.90;;;;;;5013064;28;20165;-72
2023/02/06 05:41:30;;;;;;;13.93;5.50;;;3.30;99.90;;;;;;5024999;28;20416;-71
2023/02/06 05:43:55;;;;;;;24.40;6.27;;;3.40;99.90;;;;;;5013000;28;20186;-71
2023/02/06 05:46:21;;;;;;;26.27;6.80;;;3.50;99.90;;;;;;4998046;28;20184;-71
2023/02/06 05:48:46;;;;;;;16.53;6.20;;;3.50;99.90;;;;;;4993239;28;20181;-72
2023/02/06 05:51:12;;;;;;;29.73;7.80;;;3.60;99.90;;;;;;4993189;28;20197;-72
2023/02/06 05:53:37;;;;;;;13.23;5.27;;;3.60;99.90;;;;;;4993178;28;20165;-71
2023/02/06 05:56:04;;;;;;;12.60;6.53;;;3.60;99.90;;;;;;4993010;28;20173;-71
2023/02/06 05:58:29;;;;;;;20.80;6.63;;;3.70;99.90;;;;;;4991807;28;20204;-72
2023/02/06 06:00:55;;;;;;;30.80;8.60;;;3.70;99.90;;;;;;4993021;28;20428;-72
2023/02/06 06:03:21;;;;;;;20.60;6.43;;;3.80;99.90;;;;;;4992937;28;20168;-72
2023/02/06 06:05:46;;;;;;;22.20;7.37;;;3.80;99.90;;;;;;4991516;28;20169;-71
2023/02/06 06:08:12;;;;;;;18.80;6.17;;;3.80;99.90;;;;;;4993029;28;20219;-71
2023/02/06 06:10:37;;;;;;;19.33;7.40;;;3.80;99.90;;;;;;4991522;28;20709;-71
2023/02/06 06:13:03;;;;;;;37.33;9.67;;;3.90;99.90;;;;;;4992948;28;20208;-70
2023/02/06 06:15:29;;;;;;;28.47;9.57;;;3.90;99.90;;;;;;4992545;28;20179;-72
2023/02/06 06:17:54;;;;;;;18.83;7.20;;;3.90;99.90;;;;;;4992718;28;20291;-71
2023/02/06 06:20:20;;;;;;;43.93;7.53;;;4.00;99.90;;;;;;5001062;28;20684;-71
2023/02/06 06:22:45;;;;;;;19.60;7.67;;;4.00;99.90;;;;;;5012459;28;20173;-72
2023/02/06 06:25:11;;;;;;;19.30;7.30;;;4.00;99.90;;;;;;5010782;28;20168;-71
2023/02/06 06:27:36;;;;;;;15.30;7.63;;;4.00;99.90;;;;;;5012427;28;20176;-72
2023/02/06 06:30:02;;;;;;;21.90;6.43;;;4.00;99.90;;;;;;5008862;28;20200;-73
2023/02/06 06:32:28;;;;;;;15.00;5.23;;;4.00;99.90;;;;;;5012221;28;20629;-71
2023/02/06 06:34:53;;;;;;;29.77;6.97;;;4.10;99.90;;;;;;5010754;28;20418;-71
2023/02/06 06:37:19;;;;;;;17.03;6.30;;;4.10;99.90;;;;;;5012055;28;20602;-72
2023/02/06 06:39:44;;;;;;;24.70;7.93;;;4.10;99.90;;;;;;5012141;28;20267;-71
2023/02/06 06:42:10;;;;;;;11.60;7.03;;;4.10;99.90;;;;;;5012131;28;20187;-71
2023/02/06 06:44:35;;;;;;;19.40;6.77;;;4.10;99.90;;;;;;5010276;28;20634;-71
2023/02/06 06:47:01;;;;;;;22.70;7.93;;;4.10;99.90;;;;;;4993792;28;20168;-71
2023/02/06 06:49:26;;;;;;;14.13;7.50;;;4.20;99.90;;;;;;4997690;28;20204;-71
2023/02/06 06:51:52;;;;;;;17.70;7.87;;;4.20;99.90;;;;;;5025783;28;20185;-71
2023/02/06 06:54:18;;;;;;;18.30;9.60;;;4.20;99.90;;;;;;5015791;28;20164;-71
2023/02/06 06:56:44;;;;;;;28.47;9.47;;;4.20;99.90;;;;;;5016068;28;20537;-71
2023/02/06 06:59:09;;;;;;;29.77;9.37;;;4.20;99.90;;;;;;5015961;28;20418;-71
2023/02/06 07:01:35;;;;;;;43.30;10.77;;;4.20;99.90;;;;;;5016007;28;20901;-71
2023/02/06 07:04:00;;;;;;;34.43;9.83;;;4.20;99.90;;;;;;5016195;28;20210;-71
2023/02/06 07:06:26;;;;;;;33.20;10.20;;;4.20;99.90;;;;;;5015632;28;20173;-71
2023/02/06 07:08:52;;;;;;;32.87;12.30;;;4.20;99.90;;;;;;5015658;28;20642;-71
2023/02/06 07:11:17;;;;;;;17.43;9.30;;;4.20;99.90;;;;;;5015830;28;20192;-71
2023/02/06 07:13:44;;;;;;;30.70;11.30;;;4.20;99.90;;;;;;5015850;28;20175;-71
2023/02/06 07:16:10;;;;;;;18.33;9.97;;;4.30;99.90;;;;;;5015386;28;20176;-72
2023/02/06 07:18:37;;;;;;;25.10;9.50;;;4.20;99.90;;;;;;4999484;28;20474;-71
2023/02/06 07:21:03;;;;;;;22.63;9.60;;;4.30;99.90;;;;;;4995877;28;20439;-71
2023/02/06 07:23:28;;;;;;;16.13;9.30;;;4.30;99.90;;;;;;4996040;28;20403;-71
2023/02/06 07:26:00;;;;;;;17.50;9.13;;;4.30;99.90;;;;;;4995656;28;20169;-72
2023/02/06 07:28:30;;;;;;;13.73;9.23;;;4.30;99.90;;;;;;4996033;28;20264;-71
2023/02/06 07:30:59;;;;;;;14.73;8.17;;;4.40;99.90;;;;;;4995751;28;20424;-72
2023/02/06 07:33:25;;;;;;;23.67;9.90;;;4.40;99.90;;;;;;4995813;28;20403;-71
2023/02/06 07:35:50;;;;;;;28.33;9.57;;;4.40;99.90;;;;;;4994185;28;20415;-71
2023/02/06 07:38:16;;;;;;;15.73;7.73;;;4.50;99.90;;;;;;4995711;28;20718;-72
2023/02/06 07:40:41;;;;;;;27.27;10.83;;;4.50;99.90;;;;;;4995548;28;20192;-70
2023/02/06 07:43:07;;;;;;;26.87;11.07;;;4.60;99.90;;;;;;4995573;28;20212;-69
2023/02/06 07:45:32;;;;;;;25.37;12.50;;;4.70;99.90;;;;;;4995221;28;20623;-70
2023/02/06 07:47:58;;;;;;;27.50;10.80;;;4.80;99.90;;;;;;4995604;28;20173;-70
2023/02/06 07:50:24;;;;;;;25.63;10.90;;;4.90;99.90;;;;;;4995465;28;20797;-70
2023/02/06 07:52:49;;;;;;;19.20;8.47;;;4.90;99.90;;;;;;4995419;28;20235;-70
2023/02/06 07:55:15;;;;;;;26.50;9.10;;;5.00;99.90;;;;;;4995185;28;20169;-70
2023/02/06 07:57:41;;;;;;;21.77;10.47;;;5.10;99.90;;;;;;4994727;28;20262;-70
2023/02/06 08:00:08;;;;;;;22.53;10.13;;;5.20;99.90;;;;;;4994576;28;20217;-70
2023/02/06 08:02:33;;;;;;;27.27;11.30;;;5.30;99.90;;;;;;5011734;28;20490;-70
2023/02/06 08:04:58;;;;;;;33.70;10.77;;;5.30;99.90;;;;;;5020344;28;20502;-70
2023/02/06 08:07:24;;;;;;;18.10;8.93;;;5.40;99.90;;;;;;5014809;28;20251;-70
2023/02/06 08:09:49;;;;;;;18.70;8.47;;;5.40;99.90;;;;;;5014444;28;20207;-71
2023/02/06 08:12:15;;;;;;;23.97;8.67;;;5.50;99.90;;;;;;4996026;28;20259;-70
2023/02/06 08:14:44;;;;;;;26.00;9.63;;;5.50;99.90;;;;;;5014330;28;20176;-70
2023/02/06 08:17:11;;;;;;;25.37;9.17;;;5.60;99.90;;;;;;5014494;28;20199;-71
2023/02/06 08:19:37;;;;;;;19.37;8.20;;;5.70;99.90;;;;;;5014285;28;20431;-70
2023/02/06 08:22:02;;;;;;;22.87;8.10;;;5.70;99.90;;;;;;5014516;28;20407;-70
2023/02/06 08:24:28;;;;;;;31.43;9.40;;;5.70;99.90;;;;;;5014224;28;20161;-70
2023/02/06 08:26:53;;;;;;;23.73;9.13;;;5.80;99.90;;;;;;5014228;28;20689;-70
2023/02/06 08:29:19;;;;;;;23.47;8.60;;;5.80;99.90;;;;;;5014280;28;20179;-71
2023/02/06 08:31:45;;;;;;;34.93;9.30;;;5.90;99.90;;;;;;5014307;28;20642;-70
2023/02/06 08:34:12;;;;;;;22.87;9.00;;;5.90;99.90;;;;;;5014187;28;20210;-70
2023/02/06 08:36:38;;;;;;;20.47;8.40;;;6.00;99.90;;;;;;5013957;28;20828;-70
2023/02/06 08:39:04;;;;;;;30.17;9.00;;;6.10;99.90;;;;;;5014051;28;20399;-70
2023/02/06 08:41:35;;;;;;;18.60;8.93;;;6.20;99.90;;;;;;5012649;28;20419;-69
2023/02/06 08:44:03;;;;;;;19.80;7.20;;;6.20;99.90;;;;;;5014048;28;20403;-70
2023/02/06 08:46:30;;;;;;;24.80;8.03;;;6.30;99.90;;;;;;4996799;28;20416;-70
2023/02/06 08:49:03;;;;;;;22.03;7.73;;;6.50;99.90;;;;;;4994288;28;20447;-70
2023/02/06 08:51:29;;;;;;;26.23;9.30;;;6.60;99.90;;;;;;4994312;28;20443;-70
2023/02/06 08:54:00;;;;;;;28.63;8.10;;;6.60;99.90;;;;;;4994134;28;20420;-70
2023/02/06 08:56:28;;;;;;;19.60;6.77;;;6.60;99.90;;;;;;4992687;28;20425;-70
2023/02/06 08:58:53;;;;;;;17.57;7.60;;;6.60;99.90;;;;;;4994129;28;20917;-70
2023/02/06 09:01:20;;;;;;;23.40;7.17;;;6.60;99.90;;;;;;4994091;28;20420;-70
2023/02/06 09:03:46;;;;;;;22.53;8.70;;;6.70;99.90;;;;;;4993981;28;20244;-70
2023/02/06 09:06:13;;;;;;;13.60;8.07;;;6.70;99.90;;;;;;4993821;28;20400;-70
2023/02/06 09:08:40;;;;;;;15.93;7.10;;;6.70;99.90;;;;;;4993826;28;20397;-70
2023/02/06 09:11:07;;;;;;;22.30;7.37;;;6.70;99.90;;;;;;5003171;28;20512;-70
2023/02/06 09:13:33;;;;;;;18.20;6.60;;;6.80;99.90;;;;;;5013728;28;20776;-70
2023/02/06 09:15:59;;;;;;;15.67;7.40;;;6.80;99.90;;;;;;5022775;28;20414;-70
2023/02/06 09:18:24;;;;;;;9.23;6.83;;;6.70;99.90;;;;;;5033099;28;20449;-70
2023/02/06 09:20:50;;;;;;;18.73;8.30;;;6.70;99.90;;;;;;5033011;28;20535;-70
2023/02/06 09:23:16;;;;;;;18.53;7.57;;;6.70;99.90;;;;;;5033180;28;20571;-70
2023/02/06 09:25:43;;;;;;;13.63;7.83;;;6.70;99.90;;;;;;5032770;28;20175;-70
2023/02/06 09:28:09;;;;;;;15.47;7.03;;;6.70;99.90;;;;;;5033179;28;20414;-70
2023/02/06 09:30:35;;;;;;;17.70;6.40;;;6.80;99.90;;;;;;5031601;28;20945;-71
2023/02/06 09:33:00;;;;;;;14.00;7.10;;;6.80;99.90;;;;;;5032932;28;20417;-70
2023/02/06 09:35:26;;;;;;;12.20;6.13;;;6.90;99.90;;;;;;5032598;28;20174;-70
2023/02/06 09:37:51;;;;;;;15.77;7.37;;;7.00;99.90;;;;;;5032703;28;20195;-71
2023/02/06 09:40:23;;;;;;;15.43;8.10;;;7.00;99.90;;;;;;5014769;28;20200;-70
2023/02/06 09:42:52;;;;;;;16.60;7.53;;;7.10;99.90;;;;;;4993403;28;20562;-70
2023/02/06 09:45:21;;;;;;;12.10;6.23;;;7.20;99.90;;;;;;4999090;28;20415;-70
2023/02/06 09:47:50;;;;;;;12.10;6.53;;;7.20;99.90;;;;;;5012822;28;20435;-70
2023/02/06 09:50:19;;;;;;;19.03;7.80;;;7.30;99.90;;;;;;5012844;28;20438;-70
2023/02/06 09:53:04;;;;;;;17.23;8.03;;;7.30;99.90;;;;;;5012745;28;20414;-70
2023/02/06 09:55:32;;;;;;;13.03;6.50;;;7.30;99.90;;;;;;5011305;28;20923;-70
2023/02/06 09:58:23;;;;;;;12.50;6.23;;;7.30;99.90;;;;;;5012628;28;20454;-70
2023/02/06 10:01:19;;;;;;;14.87;6.27;;;7.40;99.90;;;;;;5012611;28;20434;-70
2023/02/06 10:04:13;;;;;;;10.17;6.07;;;7.40;99.90;;;;;;5012650;28;20457;-70
2023/02/06 10:06:54;;;;;;;10.17;6.77;;;7.60;99.90;;;;;;5012562;28;21112;-70
2023/02/06 10:09:25;;;;;;;16.17;7.13;;;7.70;99.90;;;;;;5008532;28;20441;-70
2023/02/06 10:12:02;;;;;;;14.20;7.67;;;7.90;99.90;;;;;;4992956;28;20829;-70
2023/02/06 10:14:40;;;;;;;10.60;7.47;;;8.00;99.90;;;;;;4992602;28;20432;-70
2023/02/06 10:17:23;;;;;;;16.40;7.07;;;8.10;99.90;;;;;;4992809;28;20446;-70
2023/02/06 10:19:52;;;;;;;13.30;8.20;;;8.20;99.90;;;;;;4992743;28;20938;-70
2023/02/06 10:22:26;;;;;;;16.77;6.87;;;8.30;99.90;;;;;;4992079;28;20400;-70
2023/02/06 10:25:17;;;;;;;14.47;7.50;;;8.40;99.90;;;;;;4998424;28;20850;-70
2023/02/06 10:27:44;;;;;;;10.33;5.90;;;8.60;99.90;;;;;;5023908;28;20414;-69
2023/02/06 10:30:19;;;;;;;9.27;5.50;;;8.80;99.90;;;;;;5031914;28;20429;-69
2023/02/06 10:33:01;;;;;;;16.43;7.43;;;9.10;99.90;;;;;;5032014;28;20398;-71
2023/02/06 10:35:47;;;;;;;7.93;5.93;;;9.40;99.90;;;;;;5031775;28;20457;-70
2023/02/06 10:38:50;;;;;;;19.23;6.80;;;9.80;99.90;;;;;;5030576;28;20444;-70
2023/02/06 10:41:49;;;;;;;18.77;6.60;;;10.30;99.90;;;;;;5012029;28;20784;-71
2023/02/06 10:44:27;;;;;;;10.30;5.97;;;10.60;99.90;;;;;;5011913;28;20395;-71
2023/02/06 10:46:55;;;;;;;10.57;5.73;;;10.70;99.90;;;;;;5011973;28;20402;-71
2023/02/06 10:49:45;;;;;;;11.30;5.47;;;10.90;99.90;;;;;;5012240;28;20399;-70
2023/02/06 10:52:29;;;;;;;13.10;7.00;;;11.00;99.90;;;;;;5011935;28;20418;-70
2023/02/06 10:55:19;;;;;;;13.80;8.70;;;11.90;99.90;;;;;;5011759;28;20415;-70
2023/02/06 10:57:46;;;;;;;8.83;5.83;;;15.20;99.90;;;;;;5011897;28;20450;-71
2023/02/06 11:00:30;;;;;;;8.20;5.63;;;17.70;99.90;;;;;;5011918;28;20462;-70
2023/02/06 11:03:00;;;;;;;10.27;6.20;;;17.60;96.60;;;;;;5012083;28;20399;-71
2023/02/06 11:05:30;;;;;;;15.17;5.97;;;17.00;87.80;;;;;;5011721;28;20407;-70
2023/02/06 11:08:33;;;;;;;12.77;6.27;;;16.40;82.50;;;;;;5011950;28;20776;-71
2023/02/06 11:11:24;;;;;;;15.00;6.40;;;17.70;92.60;;;;;;5004147;28;20439;-71
2023/02/06 11:13:55;;;;;;;8.43;5.20;;;19.50;81.40;;;;;;5011841;28;20407;-70
2023/02/06 11:16:26;;;;;;;14.77;4.90;;;21.10;69.80;;;;;;5011644;28;20407;-71
2023/02/06 11:18:55;;;;;;;11.70;6.07;;;21.40;60.40;;;;;;5011969;28;20422;-71
2023/02/06 11:21:39;;;;;;;7.97;4.73;;;20.70;55.50;;;;;;5011760;28;20996;-71
2023/02/06 11:24:10;;;;;;;5.23;4.73;;;21.90;57.00;;;;;;5011788;28;20427;-71
2023/02/06 11:26:41;;;;;;;7.70;4.50;;;23.30;55.20;;;;;;5011481;28;20391;-71
2023/02/06 11:29:18;;;;;;;11.93;5.70;;;24.00;52.40;;;;;;5011744;28;20398;-71
2023/02/06 11:32:04;;;;;;;9.50;5.70;;;23.80;48.40;;;;;;5011644;28;20409;-69
2023/02/06 11:34:48;;;;;;;13.60;7.17;;;22.60;45.60;;;;;;5024665;28;20473;-71
2023/02/06 11:37:37;;;;;;;6.53;5.10;;;21.50;45.90;;;;;;5015146;28;20489;-71
2023/02/06 11:40:18;;;;;;;9.97;5.97;;;23.00;50.00;;;;;;5014837;28;20430;-71
2023/02/06 11:42:45;;;;;;;11.47;6.53;;;24.70;48.70;;;;;;5015021;28;20403;-71
2023/02/06 11:45:31;;;;;;;10.30;6.10;;;24.30;45.30;;;;;;5009690;28;20491;-71
2023/02/06 11:47:58;;;;;;;8.40;5.73;;;23.10;43.90;;;;;;4995250;28;20412;-71
2023/02/06 11:50:30;;;;;;;9.63;6.20;;;22.30;44.30;;;;;;4995354;28;20428;-71
2023/02/06 11:53:04;;;;;;;10.40;5.37;;;21.90;45.00;;;;;;4995559;28;20497;-71
2023/02/06 11:55:34;;;;;;;12.67;6.10;;;21.50;45.20;;;;;;4993848;28;20443;-70
2023/02/06 11:58:04;;;;;;;6.93;5.10;;;21.00;45.40;;;;;;4995205;28;20594;-71
2023/02/06 12:00:30;;;;;;;9.67;5.83;;;21.10;46.80;;;;;;4995177;28;20428;-71
2023/02/06 12:02:57;;;;;;;6.73;4.37;;;22.90;48.30;;;;;;4995208;28;20411;-71
2023/02/06 12:05:27;;;;;;;7.97;4.27;;;25.20;46.30;;;;;;4994869;28;20169;-71
2023/02/06 12:08:01;;;;;;;11.43;7.30;;;27.40;43.90;;;;;;4995083;28;20442;-71
2023/02/06 12:10:30;;;;;;;11.70;6.37;;;29.20;40.90;;;;;;4995871;28;20452;-72
2023/02/06 12:12:59;;;;;;;8.03;6.03;;;30.30;37.60;;;;;;4995033;28;20463;-71
2023/02/06 12:15:37;;;;;;;14.73;6.00;;;29.20;35.00;;;;;;4994738;28;20436;-72
2023/02/06 12:18:08;;;;;;;10.03;4.80;;;28.40;35.80;;;;;;4994927;28;20543;-72
2023/02/06 12:20:45;;;;;;;11.60;7.60;;;29.40;36.80;;;;;;4994641;28;20566;-71
2023/02/06 12:23:26;;;;;;;12.97;7.00;;;30.40;35.40;;;;;;4994937;28;20396;-72
2023/02/06 12:25:56;;;;;;;7.83;5.70;;;29.10;33.70;;;;;;4994433;28;20474;-69
2023/02/06 12:28:54;;;;;;;12.00;7.00;;;27.30;33.80;;;;;;4996894;28;20487;-69
2023/02/06 12:31:27;;;;;;;12.23;6.63;;;25.30;35.10;;;;;;5013646;28;20450;-71
2023/02/06 12:34:30;;;;;;;12.13;6.73;;;23.90;36.70;;;;;;5014273;28;20465;-71
2023/02/06 12:37:13;;;;;;;12.40;6.43;;;22.30;37.80;;;;;;5012700;28;20482;-71
2023/02/06 12:39:40;;;;;;;15.57;7.73;;;20.80;38.40;;;;;;5016946;28;20427;-71
2023/02/06 12:42:22;;;;;;;10.70;5.97;;;20.40;41.10;;;;;;5021694;28;20770;-71
2023/02/06 12:44:56;;;;;;;10.10;5.30;;;22.00;43.10;;;;;;5011816;28;20917;-71
2023/02/06 12:47:39;;;;;;;9.70;5.10;;;24.20;42.80;;;;;;5013895;28;20407;-71
2023/02/06 12:50:37;;;;;;;7.80;5.30;;;26.50;41.10;;;;;;5014014;28;20987;-71
2023/02/06 12:53:27;;;;;;;13.60;6.30;;;28.60;39.00;;;;;;5013865;28;20422;-71
2023/02/06 12:55:59;;;;;;;11.53;6.50;;;30.10;36.50;;;;;;5013664;28;20514;-69
2023/02/06 12:58:31;;;;;;;13.57;6.20;;;31.50;35.70;;;;;;5008993;28;21275;-70
2023/02/06 13:01:15;;;;;;;16.50;7.87;;;32.90;34.40;;;;;;4994183;28;20436;-70
2023/02/06 13:03:44;;;;;;;14.13;6.67;;;33.60;32.80;;;;;;4994207;28;20407;-70
2023/02/06 13:06:16;;;;;;;8.53;6.10;;;32.30;31.30;;;;;;4993780;28;20409;-70